Portada
METAR-TAF:

METAR-TAF

Aeropuertos :

Aeropuerto de Trondheim-Værnes

Trondheim, Noruega

latitud: 63-28N, longitud: 010-56E, altitud: 1 m

Observación

El informe se hizo hace 18 minutos, a las 15:20 UTC
Viento 10 kt del este-sureste
Temperatura -2°C
Humedad 50%
Presión 998 hPa
Visibilidad 10 km o más
sin nubes por debajo de 1500 m y sin presencia de cumulonimbus.

METAR: ENVA 261520Z 11010KT CAVOK M02/M11 Q0998 NOSIG RMK WIND 670FT 12008KT

Hora: 16:38 (15:38 UTC)

Pronóstico

Pronóstico válido del 26 a las 12 UTC al 27 a las 12 UTC
Viento 8 kt del este-sureste
Visibilidad 10 km o más
sin nubes por debajo de 1500 m y sin presencia de cumulonimbus.
Probabilidad 30% :
Temporalmente
del 26 a las 18 UTC al 27 a las 12 UTC
Viento 18 kt del sur-sureste con ráfagas de 28 kt

TAF: ENVA 2612/2712 12008KT CAVOK PROB30 TEMPO 2618/2712 16018G28KT

Observaciones y pronósticos meteorológicos de más de 4000 aeropuertos (mensajes METAR y TAF).

Los puntos amarillos y rojos representan las estaciones disponibles.

Ponga el ratón en el punto deseado para ver el nombre de la estación.

Haga clic para ver las observaciones y los pronósticos meteorológicos.

Para cambiar el mapa : haga clic en los botones verdes con una cruz de color negro para hacer un zoom, en el botón verde con un guión para alejar o en las flechas verdes para mapas adyacentes.


METAR-TAF: